M I D A S
Marine Information and Data Acquisition System
Tripno 312 of the Zeeleeuw from 2002-08-28 07:07:12 to 2002-08-28 10:53:29
Back to CruiseResearch ActivitiesStationsMapUnderway DataData graphs

EquipmentUnitsComment
TimeDGPSUTC
LatitudeDGPSDM.mWGS84
LongitudeDGPSDM.mWGS84
TemperatureSBE03/SBE38deg celciusITS90
ConductivitySBE21S/mITS90
SalinitySBE21 Practical Salinity Units
ChlorophylAChelsea fluorimeterg/lCalibrated in Aceton
Missing or incorrect values are displayed as -999
Sea surface data collected by the RV Zeeleeuw from 2002-08-28 07:07:12 to 2002-08-28 10:53:29
                                                                                    Next 1000 lines
Time Latitude Longitude Temperature Conductivity Salinity ChlorophylA
2002-08-28 07:07:21 51°14.576 2°54.814 -999 -999 -999  
2002-08-28 07:07:26 51°14.591 2°54.802 -999 -999 -999  
2002-08-28 07:07:30 51°14.603 2°54.793 -999 -999 -999  
2002-08-28 07:07:36 51°14.621 2°54.779 -999 -999 -999  
2002-08-28 07:07:41 51°14.636 2°54.767 -999 -999 -999  
2002-08-28 07:07:46 51°14.652 2°54.756 -999 -999 -999  
2002-08-28 07:07:50 51°14.664 2°54.746 -999 -999 -999  
2002-08-28 07:07:56 51°14.683 2°54.732 -999 -999 -999  
2002-08-28 07:08:01 51°14.699 2°54.72 -999 -999 -999  
2002-08-28 07:08:06 51°14.714 2°54.707 -999 -999 -999  
2002-08-28 07:08:10 51°14.726 2°54.697 -999 -999 -999  
2002-08-28 07:08:16 51°14.745 2°54.682 -999 -999 -999  
2002-08-28 07:08:21 51°14.76 2°54.669 -999 -999 -999  
2002-08-28 07:08:26 51°14.776 2°54.657 -999 -999 -999  
2002-08-28 07:08:30 51°14.788 2°54.648 -999 -999 -999  
2002-08-28 07:08:36 51°14.807 2°54.633 -999 -999 -999  
2002-08-28 07:08:41 51°14.823 2°54.62 -999 -999 -999  
2002-08-28 07:08:46 51°14.838 2°54.608 -999 -999 -999  
2002-08-28 07:08:50 51°14.851 2°54.598 -999 -999 -999  
2002-08-28 07:08:56 51°14.87 2°54.582 -999 -999 -999  
2002-08-28 07:09:01 51°14.885 2°54.569 -999 -999 -999  
2002-08-28 07:09:06 51°14.9 2°54.556 -999 -999 -999  
2002-08-28 07:09:11 51°14.916 2°54.543 -999 -999 -999  
2002-08-28 07:09:15 51°14.928 2°54.532 -999 -999 -999  
2002-08-28 07:09:21 51°14.947 2°54.516 -999 -999 -999  
2002-08-28 07:09:26 51°14.963 2°54.503 -999 -999 -999  
2002-08-28 07:09:31 51°14.978 2°54.49 -999 -999 -999  
2002-08-28 07:09:36 51°14.994 2°54.477 -999 -999 -999  
2002-08-28 07:09:41 51°15.009 2°54.464 -999 -999 -999  
2002-08-28 07:09:46 51°15.025 2°54.452 -999 -999 -999  
2002-08-28 07:09:51 51°15.04 2°54.439 -999 -999 -999  
2002-08-28 07:09:56 51°15.056 2°54.426 -999 -999 -999  
2002-08-28 07:10:01 51°15.071 2°54.414 -999 -999 -999  
2002-08-28 07:10:06 51°15.087 2°54.402 -999 -999 -999  
2002-08-28 07:10:10 51°15.1 2°54.392 -999 -999 -999  
2002-08-28 07:10:16 51°15.119 2°54.377 -999 -999 -999  
2002-08-28 07:10:21 51°15.134 2°54.364 -999 -999 -999  
2002-08-28 07:10:26 51°15.15 2°54.351 -999 -999 -999  
2002-08-28 07:10:30 51°15.163 2°54.342 -999 -999 -999  
2002-08-28 07:10:36 51°15.182 2°54.326 -999 -999 -999  
2002-08-28 07:10:41 51°15.197 2°54.313 -999 -999 -999  
2002-08-28 07:10:46 51°15.213 2°54.301 -999 -999 -999  
2002-08-28 07:10:51 51°15.229 2°54.288 -999 -999 -999  
2002-08-28 07:10:56 51°15.245 2°54.275 -999 -999 -999  
2002-08-28 07:11:01 51°15.26 2°54.263 -999 -999 -999  
2002-08-28 07:11:06 51°15.276 2°54.25 -999 -999 -999  
2002-08-28 07:11:11 51°15.292 2°54.238 -999 -999 -999  
2002-08-28 07:11:16 51°15.308 2°54.226 -999 -999 -999  
2002-08-28 07:11:21 51°15.324 2°54.213 -999 -999 -999  
2002-08-28 07:11:26 51°15.34 2°54.201 -999 -999 -999  
2002-08-28 07:11:30 51°15.353 2°54.191 -999 -999 -999  
2002-08-28 07:11:36 51°15.372 2°54.176 -999 -999 -999  
2002-08-28 07:11:41 51°15.389 2°54.163 -999 -999 -999  
2002-08-28 07:11:46 51°15.405 2°54.151 -999 -999 -999  
2002-08-28 07:11:50 51°15.417 2°54.14 -999 -999 -999  
2002-08-28 07:11:56 51°15.437 2°54.125 -999 -999 -999  
2002-08-28 07:12:01 51°15.452 2°54.111 -999 -999 -999  
2002-08-28 07:12:06 51°15.468 2°54.097 -999 -999 -999  
2002-08-28 07:12:10 51°15.481 2°54.086 -999 -999 -999  
2002-08-28 07:12:16 51°15.5 2°54.07 -999 -999 -999  
2002-08-28 07:12:21 51°15.516 2°54.056 -999 -999 -999  
2002-08-28 07:12:26 51°15.531 2°54.042 -999 -999 -999  
2002-08-28 07:12:30 51°15.543 2°54.031 -999 -999 -999  
2002-08-28 07:12:36 51°15.562 2°54.015 -999 -999 -999  
2002-08-28 07:12:41 51°15.578 2°54 -999 -999 -999  
2002-08-28 07:12:46 51°15.593 2°53.987 -999 -999 -999  
2002-08-28 07:12:51 51°15.609 2°53.972 -999 -999 -999  
2002-08-28 07:12:56 51°15.625 2°53.959 -999 -999 -999  
2002-08-28 07:13:01 51°15.641 2°53.945 -999 -999 -999  
2002-08-28 07:13:06 51°15.657 2°53.931 -999 -999 -999  
2002-08-28 07:13:11 51°15.672 2°53.917 -999 -999 -999  
2002-08-28 07:13:16 51°15.687 2°53.903 -999 -999 -999  
2002-08-28 07:13:21 51°15.703 2°53.889 -999 -999 -999  
2002-08-28 07:13:26 51°15.719 2°53.875 -999 -999 -999  
2002-08-28 07:13:31 51°15.734 2°53.861 -999 -999 -999  
2002-08-28 07:13:36 51°15.75 2°53.847 -999 -999 -999  
2002-08-28 07:13:41 51°15.765 2°53.832 -999 -999 -999  
2002-08-28 07:13:46 51°15.78 2°53.818 -999 -999 -999  
2002-08-28 07:13:51 51°15.796 2°53.804 -999 -999 -999  
2002-08-28 07:13:56 51°15.811 2°53.789 -999 -999 -999  
2002-08-28 07:14:01 51°15.826 2°53.775 -999 -999 -999  
2002-08-28 07:14:06 51°15.842 2°53.76 -999 -999 -999  
2002-08-28 07:14:10 51°15.855 2°53.749 -999 -999 -999  
2002-08-28 07:14:16 51°15.873 2°53.732 -999 -999 -999  
2002-08-28 07:14:21 51°15.889 2°53.718 -999 -999 -999  
2002-08-28 07:14:26 51°15.905 2°53.704 -999 -999 -999  
2002-08-28 07:14:29 51°15.914 2°53.696 -999 -999 -999  
2002-08-28 07:14:36 51°15.936 2°53.677 -999 -999 -999  
2002-08-28 07:14:41 51°15.951 2°53.663 -999 -999 -999  
2002-08-28 07:14:46 51°15.967 2°53.649 -999 -999 -999  
2002-08-28 07:14:50 51°15.979 2°53.639 -999 -999 -999  
2002-08-28 07:14:56 51°15.998 2°53.623 -999 -999 -999  
2002-08-28 07:15:01 51°16.013 2°53.609 -999 -999 -999  
2002-08-28 07:15:06 51°16.029 2°53.595 -999 -999 -999  
2002-08-28 07:15:10 51°16.041 2°53.585 -999 -999 -999  
2002-08-28 07:15:16 51°16.061 2°53.57 -999 -999 -999  
2002-08-28 07:15:21 51°16.076 2°53.556 -999 -999 -999  
2002-08-28 07:15:26 51°16.092 2°53.543 -999 -999 -999  
2002-08-28 07:15:31 51°16.108 2°53.529 -999 -999 -999  
2002-08-28 07:15:36 51°16.124 2°53.515 -999 -999 -999  
2002-08-28 07:15:41 51°16.14 2°53.502 -999 -999 -999  
2002-08-28 07:15:46 51°16.156 2°53.488 -999 -999 -999  
2002-08-28 07:15:50 51°16.169 2°53.477 -999 -999 -999  
2002-08-28 07:15:56 51°16.188 2°53.461 -999 -999 -999  
2002-08-28 07:16:01 51°16.203 2°53.448 -999 -999 -999  
2002-08-28 07:16:06 51°16.219 2°53.434 -999 -999 -999  
2002-08-28 07:16:11 51°16.235 2°53.421 -999 -999 -999  
2002-08-28 07:16:16 51°16.25 2°53.408 -999 -999 -999  
2002-08-28 07:16:21 51°16.266 2°53.394 -999 -999 -999  
2002-08-28 07:16:26 51°16.281 2°53.38 -999 -999 -999  
2002-08-28 07:16:30 51°16.294 2°53.369 -999 -999 -999  
2002-08-28 07:16:36 51°16.313 2°53.353 -999 -999 -999  
2002-08-28 07:16:41 51°16.329 2°53.34 -999 -999 -999  
2002-08-28 07:16:46 51°16.345 2°53.327 -999 -999 -999  
2002-08-28 07:16:51 51°16.36 2°53.313 -999 -999 -999  
2002-08-28 07:16:56 51°16.376 2°53.3 -999 -999 -999  
2002-08-28 07:17:01 51°16.392 2°53.286 -999 -999 -999  
2002-08-28 07:17:06 51°16.407 2°53.272 -999 -999 -999  
2002-08-28 07:17:11 51°16.423 2°53.259 -999 -999 -999  
2002-08-28 07:17:16 51°16.439 2°53.245 -999 -999 -999  
2002-08-28 07:17:21 51°16.455 2°53.232 -999 -999 -999  
2002-08-28 07:17:26 51°16.471 2°53.219 -999 -999 -999  
2002-08-28 07:17:31 51°16.487 2°53.206 -999 -999 -999  
2002-08-28 07:17:36 51°16.503 2°53.193 -999 -999 -999  
2002-08-28 07:17:41 51°16.518 2°53.179 -999 -999 -999  
2002-08-28 07:17:46 51°16.534 2°53.165 -999 -999 -999  
2002-08-28 07:17:51 51°16.55 2°53.151 -999 -999 -999  
2002-08-28 07:17:56 51°16.566 2°53.137 -999 -999 -999  
2002-08-28 07:18:01 51°16.582 2°53.123 -999 -999 -999  
2002-08-28 07:18:06 51°16.598 2°53.11 -999 -999 -999  
2002-08-28 07:18:10 51°16.61 2°53.099 -999 -999 -999  
2002-08-28 07:18:16 51°16.629 2°53.083 -999 -999 -999  
2002-08-28 07:18:21 51°16.645 2°53.07 -999 -999 -999  
2002-08-28 07:18:26 51°16.661 2°53.056 -999 -999 -999  
2002-08-28 07:18:30 51°16.673 2°53.045 -999 -999 -999  
2002-08-28 07:18:36 51°16.692 2°53.028 -999 -999 -999  
2002-08-28 07:18:41 51°16.707 2°53.014 -999 -999 -999  
2002-08-28 07:18:46 51°16.722 2°53 -999 -999 -999  
2002-08-28 07:18:50 51°16.734 2°52.989 -999 -999 -999  
2002-08-28 07:18:56 51°16.753 2°52.971 -999 -999 -999  
2002-08-28 07:19:01 51°16.768 2°52.957 -999 -999 -999  
2002-08-28 07:19:06 51°16.783 2°52.942 -999 -999 -999  
2002-08-28 07:19:10 51°16.796 2°52.931 -999 -999 -999  
2002-08-28 07:19:16 51°16.814 2°52.914 -999 -999 -999  
2002-08-28 07:19:21 51°16.829 2°52.899 -999 -999 -999  
2002-08-28 07:19:26 51°16.845 2°52.884 -999 -999 -999  
2002-08-28 07:19:31 51°16.86 2°52.87 -999 -999 -999  
2002-08-28 07:19:36 51°16.875 2°52.856 -999 -999 -999  
2002-08-28 07:19:41 51°16.891 2°52.841 -999 -999 -999  
2002-08-28 07:19:46 51°16.906 2°52.827 -999 -999 -999  
2002-08-28 07:19:50 51°16.919 2°52.815 -999 -999 -999  
2002-08-28 07:19:55 51°16.934 2°52.801 -999 -999 -999  
2002-08-28 07:20:01 51°16.953 2°52.784 -999 -999 -999  
2002-08-28 07:20:06 51°16.968 2°52.768 -999 -999 -999  
2002-08-28 07:20:10 51°16.981 2°52.757 -999 -999 -999  
2002-08-28 07:20:16 51°17 2°52.739 -999 -999 -999  
2002-08-28 07:20:21 51°17.016 2°52.725 -999 -999 -999  
2002-08-28 07:20:26 51°17.031 2°52.71 -999 -999 -999  
2002-08-28 07:20:31 51°17.047 2°52.697 -999 -999 -999  
2002-08-28 07:20:36 51°17.063 2°52.683 -999 -999 -999  
2002-08-28 07:20:41 51°17.079 2°52.671 -999 -999 -999  
2002-08-28 07:20:46 51°17.095 2°52.659 -999 -999 -999  
2002-08-28 07:20:50 51°17.108 2°52.649 -999 -999 -999  
2002-08-28 07:20:54 51°17.121 2°52.641 -999 -999 -999  
2002-08-28 07:21:01 51°17.144 2°52.625 -999 -999 -999  
2002-08-28 07:21:06 51°17.161 2°52.614 -999 -999 -999  
2002-08-28 07:21:10 51°17.174 2°52.605 -999 -999 -999  
2002-08-28 07:21:16 51°17.194 2°52.592 -999 -999 -999  
2002-08-28 07:21:21 51°17.211 2°52.583 -999 -999 -999  
2002-08-28 07:21:26 51°17.228 2°52.573 -999 -999 -999  
2002-08-28 07:21:30 51°17.241 2°52.567 -999 -999 -999  
2002-08-28 07:21:36 51°17.262 2°52.56 -999 -999 -999  
2002-08-28 07:21:41 51°17.28 2°52.555 -999 -999 -999  
2002-08-28 07:21:46 51°17.297 2°52.551 -999 -999 -999  
2002-08-28 07:21:50 51°17.311 2°52.549 -999 -999 -999  
2002-08-28 07:21:56 51°17.333 2°52.547 -999 -999 -999  
2002-08-28 07:22:01 51°17.351 2°52.545 -999 -999 -999  
2002-08-28 07:22:06 51°17.369 2°52.546 -999 -999 -999  
2002-08-28 07:22:10 51°17.383 2°52.545 -999 -999 -999  
2002-08-28 07:22:16 51°17.405 2°52.545 -999 -999 -999  
2002-08-28 07:22:21 51°17.423 2°52.545 -999 -999 -999  
2002-08-28 07:22:26 51°17.442 2°52.545 -999 -999 -999  
2002-08-28 07:22:31 51°17.46 2°52.544 -999 -999 -999  
2002-08-28 07:22:36 51°17.479 2°52.544 -999 -999 -999  
2002-08-28 07:22:41 51°17.498 2°52.544 -999 -999 -999  
2002-08-28 07:22:46 51°17.516 2°52.543 -999 -999 -999  
2002-08-28 07:22:51 51°17.535 2°52.543 -999 -999 -999  
2002-08-28 07:22:56 51°17.553 2°52.542 -999 -999 -999  
2002-08-28 07:23:01 51°17.572 2°52.543 -999 -999 -999  
2002-08-28 07:23:06 51°17.591 2°52.542 -999 -999 -999  
2002-08-28 07:23:11 51°17.61 2°52.542 -999 -999 -999  
2002-08-28 07:23:16 51°17.629 2°52.541 -999 -999 -999  
2002-08-28 07:23:21 51°17.648 2°52.541 -999 -999 -999  
2002-08-28 07:23:26 51°17.666 2°52.541 -999 -999 -999  
2002-08-28 07:23:31 51°17.685 2°52.54 -999 -999 -999  
2002-08-28 07:23:36 51°17.704 2°52.539 -999 -999 -999  
2002-08-28 07:23:41 51°17.723 2°52.539 -999 -999 -999  
2002-08-28 07:23:46 51°17.741 2°52.538 -999 -999 -999  
2002-08-28 07:23:50 51°17.756 2°52.536 -999 -999 -999  
2002-08-28 07:23:56 51°17.779 2°52.535 -999 -999 -999  
2002-08-28 07:24:01 51°17.797 2°52.534 -999 -999 -999  
2002-08-28 07:24:06 51°17.816 2°52.533 -999 -999 -999  
2002-08-28 07:24:10 51°17.831 2°52.532 -999 -999 -999  
2002-08-28 07:24:16 51°17.854 2°52.53 -999 -999 -999  
2002-08-28 07:24:21 51°17.873 2°52.53 -999 -999 -999  
2002-08-28 07:24:26 51°17.892 2°52.528 -999 -999 -999  
2002-08-28 07:24:31 51°17.91 2°52.527 -999 -999 -999  
2002-08-28 07:24:36 51°17.929 2°52.525 -999 -999 -999  
2002-08-28 07:24:41 51°17.948 2°52.524 -999 -999 -999  
2002-08-28 07:24:46 51°17.967 2°52.523 -999 -999 -999  
2002-08-28 07:24:50 51°17.982 2°52.521 -999 -999 -999  
2002-08-28 07:24:56 51°18.005 2°52.52 -999 -999 -999  
2002-08-28 07:25:01 51°18.024 2°52.518 -999 -999 -999  
2002-08-28 07:25:06 51°18.043 2°52.517 -999 -999 -999  
2002-08-28 07:25:10 51°18.058 2°52.515 -999 -999 -999  
2002-08-28 07:25:16 51°18.08 2°52.513 -999 -999 -999  
2002-08-28 07:25:21 51°18.099 2°52.511 -999 -999 -999  
2002-08-28 07:25:26 51°18.118 2°52.509 -999 -999 -999  
2002-08-28 07:25:31 51°18.137 2°52.507 -999 -999 -999  
2002-08-28 07:25:36 51°18.156 2°52.506 -999 -999 -999  
2002-08-28 07:25:41 51°18.174 2°52.503 -999 -999 -999  
2002-08-28 07:25:46 51°18.193 2°52.502 -999 -999 -999  
2002-08-28 07:25:51 51°18.212 2°52.5 -999 -999 -999  
2002-08-28 07:25:56 51°18.231 2°52.498 -999 -999 -999  
2002-08-28 07:26:01 51°18.25 2°52.497 -999 -999 -999  
2002-08-28 07:26:06 51°18.269 2°52.495 -999 -999 -999  
2002-08-28 07:26:11 51°18.288 2°52.493 -999 -999 -999  
2002-08-28 07:26:16 51°18.307 2°52.492 -999 -999 -999  
2002-08-28 07:26:21 51°18.326 2°52.491 -999 -999 -999  
2002-08-28 07:26:26 51°18.344 2°52.495 -999 -999 -999  
2002-08-28 07:26:30 51°18.359 2°52.498 -999 -999 -999  
2002-08-28 07:26:36 51°18.38 2°52.508 -999 -999 -999  
2002-08-28 07:26:41 51°18.397 2°52.518 -999 -999 -999  
2002-08-28 07:26:46 51°18.413 2°52.532 -999 -999 -999  
2002-08-28 07:26:51 51°18.429 2°52.546 -999 -999 -999  
2002-08-28 07:26:56 51°18.443 2°52.564 -999 -999 -999  
2002-08-28 07:27:01 51°18.456 2°52.583 -999 -999 -999  
2002-08-28 07:27:06 51°18.468 2°52.605 -999 -999 -999  
2002-08-28 07:27:09 51°18.474 2°52.618 -999 -999 -999  
2002-08-28 07:27:16 51°18.489 2°52.65 -999 -999 -999  
2002-08-28 07:27:21 51°18.498 2°52.674 -999 -999 -999  
2002-08-28 07:27:26 51°18.507 2°52.699 -999 -999 -999  
2002-08-28 07:27:30 51°18.513 2°52.72 -999 -999 -999  
2002-08-28 07:27:34 51°18.519 2°52.74 -999 -999 -999  
2002-08-28 07:27:40 51°18.527 2°52.772 -999 -999 -999  
2002-08-28 07:27:46 51°18.534 2°52.804 -999 -999 -999  
2002-08-28 07:27:50 51°18.539 2°52.826 -999 -999 -999  
2002-08-28 07:27:54 51°18.544 2°52.848 -999 -999 -999  
2002-08-28 07:28:00 51°18.551 2°52.88 -999 -999 -999  
2002-08-28 07:28:05 51°18.556 2°52.908 -999 -999 -999  
2002-08-28 07:28:11 51°18.563 2°52.941 -999 -999 -999  
2002-08-28 07:28:16 51°18.568 2°52.969 -999 -999 -999  
2002-08-28 07:28:21 51°18.573 2°52.995 -999 -999 -999  
2002-08-28 07:28:26 51°18.578 2°53.023 -999 -999 -999  
2002-08-28 07:28:30 51°18.583 2°53.045 -999 -999 -999  
2002-08-28 07:28:36 51°18.589 2°53.079 -999 -999 -999  
2002-08-28 07:28:41 51°18.595 2°53.107 -999 -999 -999  
2002-08-28 07:28:46 51°18.6 2°53.135 -999 -999 -999  
2002-08-28 07:28:51 51°18.606 2°53.162 -999 -999 -999  
2002-08-28 07:28:56 51°18.61 2°53.19 -999 -999 -999  
2002-08-28 07:29:00 51°18.615 2°53.212 -999 -999 -999  
2002-08-28 07:29:05 51°18.62 2°53.24 -999 -999 -999  
2002-08-28 07:29:10 51°18.625 2°53.268 -999 -999 -999  
2002-08-28 07:29:14 51°18.629 2°53.291 -999 -999 -999  
2002-08-28 07:29:21 51°18.636 2°53.329 -999 -999 -999  
2002-08-28 07:29:26 51°18.642 2°53.357 -999 -999 -999  
2002-08-28 07:29:31 51°18.647 2°53.385 -999 -999 -999  
2002-08-28 07:29:35 51°18.65 2°53.408 -999 -999 -999  
2002-08-28 07:29:41 51°18.656 2°53.442 -999 -999 -999  
2002-08-28 07:29:45 51°18.66 2°53.464 -999 -999 -999  
2002-08-28 07:29:50 51°18.665 2°53.493 -999 -999 -999  
2002-08-28 07:29:56 51°18.671 2°53.526 -999 -999 -999  
2002-08-28 07:30:01 51°18.676 2°53.554 -999 -999 -999  
2002-08-28 07:30:06 51°18.681 2°53.582 -999 -999 -999  
2002-08-28 07:30:10 51°18.686 2°53.604 -999 -999 -999  
2002-08-28 07:30:16 51°18.692 2°53.638 -999 -999 -999  
2002-08-28 07:30:21 51°18.697 2°53.666 -999 -999 -999  
2002-08-28 07:30:26 51°18.702 2°53.694 -999 -999 -999  
2002-08-28 07:30:30 51°18.705 2°53.717 -999 -999 -999  
2002-08-28 07:30:36 51°18.712 2°53.75 -999 -999 -999  
2002-08-28 07:30:41 51°18.717 2°53.778 -999 -999 -999  
2002-08-28 07:30:45 51°18.721 2°53.8 -999 -999 -999  
2002-08-28 07:30:50 51°18.726 2°53.828 -999 -999 -999  
2002-08-28 07:30:54 51°18.73 2°53.851 -999 -999 -999  
2002-08-28 07:31:01 51°18.736 2°53.89 -999 -999 -999  
2002-08-28 07:31:05 51°18.74 2°53.913 -999 -999 -999  
2002-08-28 07:31:10 51°18.745 2°53.941 -999 -999 -999  
2002-08-28 07:31:16 51°18.751 2°53.975 -999 -999 -999  
2002-08-28 07:31:20 51°18.755 2°53.997 -999 -999 -999  
2002-08-28 07:31:25 51°18.76 2°54.024 -999 -999 -999  
2002-08-28 07:31:30 51°18.764 2°54.053 -999 -999 -999  
2002-08-28 07:31:36 51°18.771 2°54.086 -999 -999 -999  
2002-08-28 07:31:41 51°18.776 2°54.115 -999 -999 -999  
2002-08-28 07:31:46 51°18.781 2°54.143 -999 -999 -999  
2002-08-28 07:31:50 51°18.784 2°54.165 -999 -999 -999  
2002-08-28 07:31:54 51°18.788 2°54.188 -999 -999 -999  
2002-08-28 07:32:00 51°18.795 2°54.222 -999 -999 -999  
2002-08-28 07:32:06 51°18.8 2°54.255 -999 -999 -999  
2002-08-28 07:32:10 51°18.804 2°54.277 -999 -999 -999  
2002-08-28 07:32:15 51°18.81 2°54.306 -999 -999 -999  
2002-08-28 07:32:21 51°18.815 2°54.339 -999 -999 -999  
2002-08-28 07:32:25 51°18.819 2°54.362 -999 -999 -999  
2002-08-28 07:32:30 51°18.824 2°54.39 -999 -999 -999  
2002-08-28 07:32:34 51°18.827 2°54.413 -999 -999 -999  
2002-08-28 07:32:41 51°18.834 2°54.452 -999 -999 -999  
2002-08-28 07:32:45 51°18.837 2°54.474 -999 -999 -999  
2002-08-28 07:32:50 51°18.843 2°54.502 -999 -999 -999  
2002-08-28 07:32:56 51°18.849 2°54.536 -999 -999 -999  
2002-08-28 07:33:01 51°18.853 2°54.564 -999 -999 -999  
2002-08-28 07:33:05 51°18.857 2°54.586 -999 -999 -999  
2002-08-28 07:33:10 51°18.862 2°54.614 -999 -999 -999  
2002-08-28 07:33:14 51°18.866 2°54.636 -999 -999 -999  
2002-08-28 07:33:21 51°18.873 2°54.675 -999 -999 -999  
2002-08-28 07:33:25 51°18.876 2°54.698 -999 -999 -999  
2002-08-28 07:33:29 51°18.881 2°54.72 -999 -999 -999  
2002-08-28 07:33:36 51°18.888 2°54.759 -999 -999 -999  
2002-08-28 07:33:40 51°18.892 2°54.781 -999 -999 -999  
2002-08-28 07:33:46 51°18.897 2°54.815 -999 -999 -999  
2002-08-28 07:33:50 51°18.901 2°54.837 -999 -999 -999  
2002-08-28 07:33:56 51°18.906 2°54.871 -999 -999 -999  
2002-08-28 07:34:01 51°18.912 2°54.898 -999 -999 -999  
2002-08-28 07:34:06 51°18.915 2°54.927 -999 -999 -999  
2002-08-28 07:34:10 51°18.92 2°54.949 -999 -999 -999  
2002-08-28 07:34:14 51°18.924 2°54.971 -999 -999 -999  
2002-08-28 07:34:20 51°18.93 2°55.004 -999 -999 -999  
2002-08-28 07:34:26 51°18.935 2°55.038 -999 -999 -999  
2002-08-28 07:34:31 51°18.941 2°55.066 -999 -999 -999  
2002-08-28 07:34:36 51°18.944 2°55.094 -999 -999 -999  
2002-08-28 07:34:41 51°18.95 2°55.122 -999 -999 -999  
2002-08-28 07:34:45 51°18.953 2°55.144 -999 -999 -999  
2002-08-28 07:34:50 51°18.958 2°55.172 -999 -999 -999  
2002-08-28 07:34:56 51°18.963 2°55.206 -999 -999 -999  
2002-08-28 07:35:01 51°18.969 2°55.233 -999 -999 -999  
2002-08-28 07:35:05 51°18.972 2°55.256 -999 -999 -999  
2002-08-28 07:35:10 51°18.978 2°55.283 -999 -999 -999  
2002-08-28 07:35:16 51°18.983 2°55.317 -999 -999 -999  
2002-08-28 07:35:21 51°18.988 2°55.344 -999 -999 -999  
2002-08-28 07:35:25 51°18.991 2°55.367 -999 -999 -999  
2002-08-28 07:35:30 51°18.997 2°55.395 -999 -999 -999  
2002-08-28 07:35:36 51°19.003 2°55.428 -999 -999 -999  
2002-08-28 07:35:41 51°19.008 2°55.456 -999 -999 -999  
2002-08-28 07:35:46 51°19.012 2°55.485 -999 -999 -999  
2002-08-28 07:35:50 51°19.016 2°55.507 -999 -999 -999  
2002-08-28 07:35:56 51°19.022 2°55.54 -999 -999 -999  
2002-08-28 07:36:01 51°19.027 2°55.568 -999 -999 -999  
2002-08-28 07:36:05 51°19.031 2°55.59 -999 -999 -999  
2002-08-28 07:36:09 51°19.035 2°55.613 -999 -999 -999  
2002-08-28 07:36:14 51°19.04 2°55.64 -999 -999 -999  
2002-08-28 07:36:20 51°19.045 2°55.674 -999 -999 -999  
2002-08-28 07:36:26 51°19.051 2°55.707 -999 -999 -999  
2002-08-28 07:36:30 51°19.055 2°55.73 -999 -999 -999  
2002-08-28 07:36:34 51°19.06 2°55.752 -999 -999 -999  
2002-08-28 07:36:40 51°19.065 2°55.785 -999 -999 -999  
2002-08-28 07:36:46 51°19.071 2°55.818 -999 -999 -999  
2002-08-28 07:36:50 51°19.074 2°55.841 -999 -999 -999  
2002-08-28 07:36:56 51°19.08 2°55.874 -999 -999 -999  
2002-08-28 07:37:01 51°19.085 2°55.902 -999 -999 -999  
2002-08-28 07:37:06 51°19.09 2°55.929 -999 -999 -999  
2002-08-28 07:37:10 51°19.093 2°55.952 -999 -999 -999  
2002-08-28 07:37:14 51°19.097 2°55.974 -999 -999 -999  
2002-08-28 07:37:21 51°19.104 2°56.013 -999 -999 -999  
2002-08-28 07:37:25 51°19.107 2°56.035 -999 -999 -999  
2002-08-28 07:37:30 51°19.113 2°56.062 -999 -999 -999  
2002-08-28 07:37:36 51°19.118 2°56.096 -999 -999 -999  
2002-08-28 07:37:40 51°19.123 2°56.118 -999 -999 -999  
2002-08-28 07:37:45 51°19.127 2°56.146 -999 -999 -999  
2002-08-28 07:37:50 51°19.132 2°56.174 -999 -999 -999  
2002-08-28 07:37:55 51°19.137 2°56.202 -999 -999 -999  
2002-08-28 07:38:00 51°19.143 2°56.229 -999 -999 -999  
2002-08-28 07:38:06 51°19.147 2°56.263 -999 -999 -999  
2002-08-28 07:38:11 51°19.153 2°56.291 -999 -999 -999  
2002-08-28 07:38:15 51°19.156 2°56.313 -999 -999 -999  
2002-08-28 07:38:20 51°19.162 2°56.341 -999 -999 -999  
2002-08-28 07:38:25 51°19.165 2°56.369 -999 -999 -999  
2002-08-28 07:38:30 51°19.172 2°56.396 -999 -999 -999  
2002-08-28 07:38:36 51°19.176 2°56.43 -999 -999 -999  
2002-08-28 07:38:41 51°19.182 2°56.457 -999 -999 -999  
2002-08-28 07:38:46 51°19.186 2°56.486 -999 -999 -999  
2002-08-28 07:38:50 51°19.191 2°56.507 -999 -999 -999  
2002-08-28 07:38:54 51°19.194 2°56.53 -999 -999 -999  
2002-08-28 07:39:01 51°19.202 2°56.569 -999 -999 -999  
2002-08-28 07:39:05 51°19.206 2°56.591 -999 -999 -999  
2002-08-28 07:39:10 51°19.212 2°56.618 -999 -999 -999  
2002-08-28 07:39:16 51°19.219 2°56.651 -999 -999 -999  
2002-08-28 07:39:21 51°19.226 2°56.678 -999 -999 -999  
2002-08-28 07:39:25 51°19.231 2°56.699 -999 -999 -999  
2002-08-28 07:39:30 51°19.239 2°56.726 -999 -999 -999  
2002-08-28 07:39:34 51°19.244 2°56.747 -999 -999 -999  
2002-08-28 07:39:41 51°19.254 2°56.785 -999 -999 -999  
2002-08-28 07:39:45 51°19.259 2°56.806 -999 -999 -999  
2002-08-28 07:39:50 51°19.266 2°56.832 -999 -999 -999  
2002-08-28 07:39:56 51°19.274 2°56.865 -999 -999 -999  
2002-08-28 07:40:01 51°19.281 2°56.892 -999 -999 -999  
2002-08-28 07:40:05 51°19.285 2°56.913 -999 -999 -999  
2002-08-28 07:40:10 51°19.293 2°56.939 -999 -999 -999  
2002-08-28 07:40:15 51°19.299 2°56.967 -999 -999 -999  
2002-08-28 07:40:21 51°19.308 2°56.998 -999 -999 -999  
2002-08-28 07:40:26 51°19.314 2°57.026 -999 -999 -999  
2002-08-28 07:40:31 51°19.321 2°57.052 -999 -999 -999  
2002-08-28 07:40:35 51°19.325 2°57.074 -999 -999 -999  
2002-08-28 07:40:40 51°19.332 2°57.1 -999 -999 -999  
2002-08-28 07:40:46 51°19.34 2°57.133 -999 -999 -999  
2002-08-28 07:40:50 51°19.346 2°57.154 -999 -999 -999  
2002-08-28 07:40:55 51°19.352 2°57.181 -999 -999 -999  
2002-08-28 07:41:01 51°19.361 2°57.213 -999 -999 -999  
2002-08-28 07:41:06 51°19.367 2°57.24 -999 -999 -999  
2002-08-28 07:41:11 51°19.374 2°57.267 -999 -999 -999  
2002-08-28 07:41:15 51°19.379 2°57.289 -999 -999 -999  
2002-08-28 07:41:20 51°19.386 2°57.316 -999 -999 -999  
2002-08-28 07:41:25 51°19.393 2°57.342 -999 -999 -999  
2002-08-28 07:41:30 51°19.399 2°57.369 -999 -999 -999  
2002-08-28 07:41:36 51°19.407 2°57.401 -999 -999 -999  
2002-08-28 07:41:41 51°19.413 2°57.428 -999 -999 -999  
2002-08-28 07:41:46 51°19.421 2°57.454 -999 -999 -999  
2002-08-28 07:41:50 51°19.426 2°57.476 -999 -999 -999  
2002-08-28 07:41:54 51°19.431 2°57.497 -999 -999 -999  
2002-08-28 07:42:01 51°19.44 2°57.535 -999 -999 -999  
2002-08-28 07:42:05 51°19.446 2°57.556 -999 -999 -999  
2002-08-28 07:42:10 51°19.452 2°57.583 -999 -999 -999  
2002-08-28 07:42:16 51°19.461 2°57.615 -999 -999 -999  
2002-08-28 07:42:20 51°19.465 2°57.636 -999 -999 -999  
2002-08-28 07:42:25 51°19.472 2°57.663 -999 -999 -999  
2002-08-28 07:42:30 51°19.478 2°57.69 -999 -999 -999  
2002-08-28 07:42:34 51°19.483 2°57.711 -999 -999 -999  
2002-08-28 07:42:41 51°19.491 2°57.749 -999 -999 -999  
2002-08-28 07:42:45 51°19.496 2°57.771 -999 -999 -999  
2002-08-28 07:42:50 51°19.503 2°57.797 -999 -999 -999  
2002-08-28 07:42:54 51°19.508 2°57.819 -999 -999 -999  
2002-08-28 07:43:01 51°19.517 2°57.856 -999 -999 -999  
2002-08-28 07:43:05 51°19.523 2°57.877 -999 -999 -999  
2002-08-28 07:43:10 51°19.529 2°57.904 -999 -999 -999  
2002-08-28 07:43:16 51°19.537 2°57.937 -999 -999 -999  
2002-08-28 07:43:21 51°19.544 2°57.963 -999 -999 -999  
2002-08-28 07:43:26 51°19.551 2°57.99 -999 -999 -999  
2002-08-28 07:43:30 51°19.556 2°58.011 -999 -999 -999  
2002-08-28 07:43:35 51°19.563 2°58.038 -999 -999 -999  
2002-08-28 07:43:40 51°19.569 2°58.065 -999 -999 -999  
2002-08-28 07:43:46 51°19.578 2°58.096 -999 -999 -999  
2002-08-28 07:43:51 51°19.584 2°58.123 -999 -999 -999  
2002-08-28 07:43:55 51°19.59 2°58.144 -999 -999 -999  
2002-08-28 07:44:01 51°19.598 2°58.176 -999 -999 -999  
2002-08-28 07:44:05 51°19.603 2°58.198 -999 -999 -999  
2002-08-28 07:44:10 51°19.61 2°58.225 -999 -999 -999  
2002-08-28 07:44:15 51°19.616 2°58.251 -999 -999 -999  
2002-08-28 07:44:20 51°19.623 2°58.278 -999 -999 -999  
2002-08-28 07:44:26 51°19.63 2°58.311 -999 -999 -999  
2002-08-28 07:44:30 51°19.636 2°58.332 -999 -999 -999  
2002-08-28 07:44:34 51°19.641 2°58.354 -999 -999 -999  
2002-08-28 07:44:37 51°19.644 2°58.37 -999 -999 -999  
2002-08-28 07:44:45 51°19.654 2°58.413 -999 -999 -999  
2002-08-28 07:44:50 51°19.662 2°58.439 -999 -999 -999  
2002-08-28 07:44:56 51°19.668 2°58.472 -999 -999 -999  
2002-08-28 07:45:01 51°19.675 2°58.498 -999 -999 -999  
2002-08-28 07:45:06 51°19.682 2°58.525 -999 -999 -999  
2002-08-28 07:45:10 51°19.687 2°58.547 -999 -999 -999  
2002-08-28 07:45:14 51°19.692 2°58.569 -999 -999 -999  
2002-08-28 07:45:20 51°19.699 2°58.601 -999 -999 -999  
2002-08-28 07:45:25 51°19.706 2°58.627 -999 -999 -999  
2002-08-28 07:45:30 51°19.712 2°58.655 -999 -999 -999  
2002-08-28 07:45:36 51°19.72 2°58.687 -999 -999 -999  
2002-08-28 07:45:40 51°19.725 2°58.708 -999 -999 -999  
2002-08-28 07:45:46 51°19.733 2°58.74 -999 -999 -999  
2002-08-28 07:45:50 51°19.738 2°58.761 -999 -999 -999  
2002-08-28 07:45:54 51°19.743 2°58.783 -999 -999 -999  
2002-08-28 07:46:01 51°19.752 2°58.82 -999 -999 -999  
2002-08-28 07:46:05 51°19.757 2°58.841 -999 -999 -999  
2002-08-28 07:46:10 51°19.764 2°58.868 -999 -999 -999  
2002-08-28 07:46:16 51°19.771 2°58.901 -999 -999 -999  
2002-08-28 07:46:21 51°19.778 2°58.927 -999 -999 -999  
2002-08-28 07:46:25 51°19.783 2°58.948 -999 -999 -999  
2002-08-28 07:46:30 51°19.789 2°58.974 -999 -999 -999  
2002-08-28 07:46:36 51°19.797 2°59.006 -999 -999 -999  
2002-08-28 07:46:41 51°19.804 2°59.033 -999 -999 -999  
2002-08-28 07:46:46 51°19.809 2°59.06 -999 -999 -999  
2002-08-28 07:46:50 51°19.815 2°59.081 -999 -999 -999  
2002-08-28 07:46:56 51°19.821 2°59.113 -999 -999 -999  
2002-08-28 07:47:01 51°19.828 2°59.139 -999 -999 -999  
2002-08-28 07:47:05 51°19.833 2°59.16 -999 -999 -999  
2002-08-28 07:47:10 51°19.839 2°59.186 -999 -999 -999  
2002-08-28 07:47:16 51°19.846 2°59.218 -999 -999 -999  
2002-08-28 07:47:21 51°19.852 2°59.244 -999 -999 -999  
2002-08-28 07:47:25 51°19.858 2°59.265 -999 -999 -999  
2002-08-28 07:47:30 51°19.863 2°59.292 -999 -999 -999  
2002-08-28 07:47:35 51°19.869 2°59.318 -999 -999 -999  
2002-08-28 07:47:41 51°19.877 2°59.35 -999 -999 -999  
2002-08-28 07:47:45 51°19.882 2°59.371 -999 -999 -999  
2002-08-28 07:47:50 51°19.889 2°59.397 -999 -999 -999  
2002-08-28 07:47:56 51°19.896 2°59.429 -999 -999 -999  
2002-08-28 07:48:01 51°19.902 2°59.455 -999 -999 -999  
2002-08-28 07:48:05 51°19.907 2°59.477 -999 -999 -999  
2002-08-28 07:48:10 51°19.913 2°59.503 -999 -999 -999  
2002-08-28 07:48:14 51°19.918 2°59.524 -999 -999 -999  
2002-08-28 07:48:21 51°19.927 2°59.561 -999 -999 -999  
2002-08-28 07:48:25 51°19.932 2°59.581 -999 -999 -999  
2002-08-28 07:48:29 51°19.937 2°59.603 -999 -999 -999  
2002-08-28 07:48:36 51°19.946 2°59.639 -999 -999 -999  
2002-08-28 07:48:41 51°19.952 2°59.665 -999 -999 -999  
2002-08-28 07:48:45 51°19.958 2°59.686 -999 -999 -999  
2002-08-28 07:48:50 51°19.964 2°59.712 -999 -999 -999  
2002-08-28 07:48:56 51°19.971 2°59.743 -999 -999 -999  
2002-08-28 07:49:01 51°19.978 2°59.769 -999 -999 -999  
2002-08-28 07:49:06 51°19.984 2°59.796 -999 -999 -999  
2002-08-28 07:49:10 51°19.989 2°59.817 -999 -999 -999  
2002-08-28 07:49:14 51°19.994 2°59.837 -999 -999 -999  
2002-08-28 07:49:20 51°20.001 2°59.869 -999 -999 -999  
2002-08-28 07:49:26 51°20.009 2°59.9 -999 -999 -999  
2002-08-28 07:49:31 51°20.016 2°59.927 -999 -999 -999  
2002-08-28 07:49:35 51°20.021 2°59.948 -999 -999 -999  
2002-08-28 07:49:41 51°20.028 2°59.978 -999 -999 -999  
2002-08-28 07:49:46 51°20.034 3°0.004 -999 -999 -999  
2002-08-28 07:49:49 51°20.039 3°0.02 -999 -999 -999  
2002-08-28 07:49:53 51°20.043 3°0.041 -999 -999 -999  
2002-08-28 07:50:01 51°20.053 3°0.083 -999 -999 -999  
2002-08-28 07:50:06 51°20.059 3°0.109 -999 -999 -999  
2002-08-28 07:50:10 51°20.064 3°0.129 -999 -999 -999  
2002-08-28 07:50:16 51°20.072 3°0.161 -999 -999 -999  
2002-08-28 07:50:21 51°20.079 3°0.187 -999 -999 -999  
2002-08-28 07:50:25 51°20.083 3°0.207 -999 -999 -999  
2002-08-28 07:50:30 51°20.09 3°0.233 -999 -999 -999  
2002-08-28 07:50:36 51°20.098 3°0.264 -999 -999 -999  
2002-08-28 07:50:41 51°20.104 3°0.29 -999 -999 -999  
2002-08-28 07:50:46 51°20.11 3°0.316 -999 -999 -999  
2002-08-28 07:50:50 51°20.115 3°0.337 -999 -999 -999  
2002-08-28 07:50:56 51°20.122 3°0.369 -999 -999 -999  
2002-08-28 07:51:01 51°20.13 3°0.394 -999 -999 -999  
2002-08-28 07:51:05 51°20.134 3°0.415 -999 -999 -999  
2002-08-28 07:51:10 51°20.141 3°0.441 -999 -999 -999  
2002-08-28 07:51:16 51°20.148 3°0.472 -999 -999 -999  
2002-08-28 07:51:20 51°20.154 3°0.492 -999 -999 -999  
2002-08-28 07:51:25 51°20.161 3°0.518 -999 -999 -999  
2002-08-28 07:51:30 51°20.168 3°0.543 -999 -999 -999  
2002-08-28 07:51:34 51°20.173 3°0.564 -999 -999 -999  
2002-08-28 07:51:40 51°20.182 3°0.594 -999 -999 -999  
2002-08-28 07:51:45 51°20.189 3°0.62 -999 -999 -999  
2002-08-28 07:51:50 51°20.196 3°0.645 -999 -999 -999  
2002-08-28 07:51:54 51°20.202 3°0.665 -999 -999 -999  
2002-08-28 07:52:00 51°20.211 3°0.696 -999 -999 -999  
2002-08-28 07:52:06 51°20.219 3°0.726 -999 -999 -999  
2002-08-28 07:52:10 51°20.224 3°0.746 -999 -999 -999  
2002-08-28 07:52:14 51°20.23 3°0.766 -999 -999 -999  
2002-08-28 07:52:21 51°20.24 3°0.802 -999 -999 -999  
2002-08-28 07:52:25 51°20.246 3°0.822 -999 -999 -999  
2002-08-28 07:52:29 51°20.251 3°0.842 -999 -999 -999  
2002-08-28 07:52:36 51°20.261 3°0.878 -999 -999 -999  
2002-08-28 07:52:41 51°20.268 3°0.903 -999 -999 -999  
2002-08-28 07:52:45 51°20.274 3°0.923 -999 -999 -999  
2002-08-28 07:52:50 51°20.281 3°0.948 -999 -999 -999  
2002-08-28 07:52:56 51°20.289 3°0.978 -999 -999 -999  
2002-08-28 07:53:00 51°20.295 3°0.999 -999 -999 -999  
2002-08-28 07:53:06 51°20.303 3°1.029 -999 -999 -999  
2002-08-28 07:53:10 51°20.309 3°1.049 -999 -999 -999  
2002-08-28 07:53:14 51°20.314 3°1.07 -999 -999 -999  
2002-08-28 07:53:17 51°20.318 3°1.085 -999 -999 -999  
2002-08-28 07:53:25 51°20.328 3°1.126 -999 -999 -999  
2002-08-28 07:53:29 51°20.333 3°1.146 -999 -999 -999  
2002-08-28 07:53:34 51°20.339 3°1.172 -999 -999 -999  
2002-08-28 07:53:41 51°20.349 3°1.207 -999 -999 -999  
2002-08-28 07:53:45 51°20.354 3°1.227 -999 -999 -999  
2002-08-28 07:53:50 51°20.361 3°1.253 -999 -999 -999  
2002-08-28 07:53:55 51°20.368 3°1.278 -999 -999 -999  
2002-08-28 07:54:01 51°20.376 3°1.308 -999 -999 -999  
2002-08-28 07:54:05 51°20.382 3°1.328 -999 -999 -999  
2002-08-28 07:54:10 51°20.388 3°1.354 -999 -999 -999  
2002-08-28 07:54:16 51°20.396 3°1.384 -999 -999 -999  
2002-08-28 07:54:21 51°20.403 3°1.41 -999 -999 -999  
2002-08-28 07:54:26 51°20.41 3°1.434 -999 -999 -999  
2002-08-28 07:54:30 51°20.415 3°1.455 -999 -999 -999  
2002-08-28 07:54:35 51°20.421 3°1.48 -999 -999 -999  
2002-08-28 07:54:40 51°20.428 3°1.505 -999 -999 -999  
2002-08-28 07:54:45 51°20.435 3°1.53 -999 -999 -999  
2002-08-28 07:54:50 51°20.442 3°1.555 -999 -999 -999  
2002-08-28 07:54:56 51°20.45 3°1.585 -999 -999 -999  
2002-08-28 07:55:01 51°20.456 3°1.611 -999 -999 -999  
2002-08-28 07:55:05 51°20.462 3°1.631 -999 -999 -999  
2002-08-28 07:55:10 51°20.469 3°1.656 -999 -999 -999  
2002-08-28 07:55:16 51°20.477 3°1.686 -999 -999 -999  
2002-08-28 07:55:21 51°20.484 3°1.712 -999 -999 -999  
2002-08-28 07:55:26 51°20.491 3°1.737 -999 -999 -999  
2002-08-28 07:55:30 51°20.496 3°1.757 -999 -999 -999  
2002-08-28 07:55:34 51°20.501 3°1.778 -999 -999 -999  
2002-08-28 07:55:41 51°20.511 3°1.813 -999 -999 -999  
2002-08-28 07:55:45 51°20.517 3°1.833 -999 -999 -999  
2002-08-28 07:55:50 51°20.523 3°1.859 -999 -999 -999  
2002-08-28 07:55:56 51°20.532 3°1.889 -999 -999 -999  
2002-08-28 07:56:01 51°20.539 3°1.913 -999 -999 -999  
2002-08-28 07:56:05 51°20.544 3°1.934 -999 -999 -999  
2002-08-28 07:56:10 51°20.551 3°1.959 -999 -999 -999  
2002-08-28 07:56:14 51°20.556 3°1.979 -999 -999 -999  
2002-08-28 07:56:20 51°20.564 3°2.01 -999 -999 -999  
2002-08-28 07:56:25 51°20.571 3°2.035 -999 -999 -999  
2002-08-28 07:56:30 51°20.578 3°2.06 -999 -999 -999  
2002-08-28 07:56:36 51°20.586 3°2.09 -999 -999 -999  
2002-08-28 07:56:41 51°20.592 3°2.115 -999 -999 -999  
2002-08-28 07:56:45 51°20.599 3°2.135 -999 -999 -999  
2002-08-28 07:56:50 51°20.606 3°2.161 -999 -999 -999  
2002-08-28 07:56:56 51°20.614 3°2.191 -999 -999 -999  
2002-08-28 07:57:00 51°20.619 3°2.211 -999 -999 -999  
2002-08-28 07:57:06 51°20.628 3°2.24 -999 -999 -999  
2002-08-28 07:57:10 51°20.633 3°2.261 -999 -999 -999  
2002-08-28 07:57:14 51°20.639 3°2.281 -999 -999 -999  
2002-08-28 07:57:21 51°20.647 3°2.316 -999 -999 -999  
2002-08-28 07:57:25 51°20.653 3°2.336 -999 -999 -999  
2002-08-28 07:57:29 51°20.658 3°2.356 -999 -999 -999  
2002-08-28 07:57:34 51°20.665 3°2.381 -999 -999 -999  
2002-08-28 07:57:41 51°20.675 3°2.416 -999 -999 -999  
2002-08-28 07:57:45 51°20.68 3°2.436 -999 -999 -999  
2002-08-28 07:57:50 51°20.688 3°2.46 -999 -999 -999  
2002-08-28 07:57:56 51°20.695 3°2.491 -999 -999 -999  
2002-08-28 07:58:01 51°20.703 3°2.515 -999 -999 -999  
2002-08-28 07:58:06 51°20.709 3°2.541 -999 -999 -999  
2002-08-28 07:58:10 51°20.715 3°2.561 -999 -999 -999  
2002-08-28 07:58:15 51°20.721 3°2.586 -999 -999 -999  
2002-08-28 07:58:21 51°20.73 3°2.616 -999 -999 -999  
2002-08-28 07:58:26 51°20.736 3°2.641 -999 -999 -999  
2002-08-28 07:58:30 51°20.742 3°2.661 -999 -999 -999  
2002-08-28 07:58:35 51°20.748 3°2.686 -999 -999 -999  
2002-08-28 07:58:41 51°20.757 3°2.716 -999 -999 -999  
2002-08-28 07:58:45 51°20.762 3°2.736 -999 -999 -999  
2002-08-28 07:58:50 51°20.769 3°2.761 -999 -999 -999  
2002-08-28 07:58:56 51°20.777 3°2.791 -999 -999 -999  
2002-08-28 07:59:01 51°20.784 3°2.816 -999 -999 -999  
2002-08-28 07:59:06 51°20.79 3°2.841 -999 -999 -999  
2002-08-28 07:59:10 51°20.795 3°2.862 -999 -999 -999  
2002-08-28 07:59:14 51°20.801 3°2.881 -999 -999 -999  
2002-08-28 07:59:21 51°20.81 3°2.916 -999 -999 -999  
2002-08-28 07:59:25 51°20.815 3°2.937 -999 -999 -999  
2002-08-28 07:59:29 51°20.821 3°2.956 -999 -999 -999  
2002-08-28 07:59:36 51°20.829 3°2.991 -999 -999 -999  
2002-08-28 07:59:41 51°20.836 3°3.016 -999 -999 -999  
2002-08-28 07:59:45 51°20.841 3°3.036 -999 -999 -999  
2002-08-28 07:59:50 51°20.848 3°3.061 -999 -999 -999  
2002-08-28 07:59:55 51°20.854 3°3.086 -999 -999 -999  
2002-08-28 08:00:01 51°20.862 3°3.116 -999 -999 -999  
2002-08-28 08:00:05 51°20.867 3°3.136 -999 -999 -999  
2002-08-28 08:00:10 51°20.875 3°3.16 -999 -999 -999  
2002-08-28 08:00:16 51°20.883 3°3.19 -999 -999 -999  
2002-08-28 08:00:20 51°20.89 3°3.209 -999 -999 -999  
2002-08-28 08:00:26 51°20.899 3°3.239 -999 -999 -999  
2002-08-28 08:00:31 51°20.906 3°3.264 -999 -999 -999  
2002-08-28 08:00:35 51°20.912 3°3.284 -999 -999 -999  
2002-08-28 08:00:41 51°20.921 3°3.313 -999 -999 -999  
2002-08-28 08:00:46 51°20.928 3°3.337 -999 -999 -999  
2002-08-28 08:00:51 51°20.936 3°3.362 -999 -999 -999  
2002-08-28 08:00:55 51°20.942 3°3.381 -999 -999 -999  
2002-08-28 08:01:01 51°20.951 3°3.411 -999 -999 -999  
2002-08-28 08:01:05 51°20.957 3°3.431 -999 -999 -999  
2002-08-28 08:01:11 51°20.966 3°3.46 -999 -999 -999  
2002-08-28 08:01:16 51°20.973 3°3.485 -999 -999 -999  
2002-08-28 08:01:21 51°20.981 3°3.509 -999 -999 -999  
2002-08-28 08:01:26 51°20.989 3°3.533 -999 -999 -999  
2002-08-28 08:01:30 51°20.994 3°3.554 -999 -999 -999  
2002-08-28 08:01:36 51°21.004 3°3.582 -999 -999 -999  
2002-08-28 08:01:41 51°21.011 3°3.606 -999 -999 -999  
2002-08-28 08:01:46 51°21.019 3°3.631 -999 -999 -999  
2002-08-28 08:01:50 51°21.025 3°3.651 -999 -999 -999  
2002-08-28 08:01:56 51°21.034 3°3.68 -999 -999 -999  
2002-08-28 08:02:01 51°21.042 3°3.704 -999 -999 -999  
2002-08-28 08:02:06 51°21.05 3°3.729 -999 -999 -999  
2002-08-28 08:02:10 51°21.055 3°3.749 -999 -999 -999  
2002-08-28 08:02:16 51°21.064 3°3.778 -999 -999 -999  
2002-08-28 08:02:21 51°21.072 3°3.803 -999 -999 -999  
2002-08-28 08:02:25 51°21.078 3°3.822 -999 -999 -999  
2002-08-28 08:02:30 51°21.085 3°3.847 -999 -999 -999  
2002-08-28 08:02:36 51°21.095 3°3.876 -999 -999 -999  
2002-08-28 08:02:41 51°21.102 3°3.9 -999 -999 -999  
2002-08-28 08:02:46 51°21.11 3°3.925 -999 -999 -999  
2002-08-28 08:02:50 51°21.116 3°3.944 -999 -999 -999  
2002-08-28 08:02:54 51°21.122 3°3.964 -999 -999 -999  
2002-08-28 08:03:01 51°21.133 3°3.998 -999 -999 -999  
2002-08-28 08:03:06 51°21.14 3°4.023 -999 -999 -999  
2002-08-28 08:03:10 51°21.146 3°4.042 -999 -999 -999  
2002-08-28 08:03:14 51°21.152 3°4.062 -999 -999 -999  
2002-08-28 08:03:21 51°21.162 3°4.096 -999 -999 -999  
2002-08-28 08:03:26 51°21.17 3°4.121 -999 -999 -999  
2002-08-28 08:03:30 51°21.175 3°4.14 -999 -999 -999  
2002-08-28 08:03:36 51°21.183 3°4.17 -999 -999 -999  
2002-08-28 08:03:41 51°21.191 3°4.194 -999 -999 -999  
2002-08-28 08:03:46 51°21.198 3°4.219 -999 -999 -999  
2002-08-28 08:03:51 51°21.205 3°4.243 -999 -999 -999  
2002-08-28 08:03:56 51°21.212 3°4.268 -999 -999 -999  
2002-08-28 08:04:01 51°21.219 3°4.293 -999 -999 -999  
2002-08-28 08:04:06 51°21.227 3°4.317 -999 -999 -999  
2002-08-28 08:04:11 51°21.233 3°4.342 -999 -999 -999  
2002-08-28 08:04:16 51°21.241 3°4.366 -999 -999 -999  
2002-08-28 08:04:21 51°21.248 3°4.391 -999 -999 -999  
2002-08-28 08:04:26 51°21.255 3°4.416 -999 -999 -999  
2002-08-28 08:04:30 51°21.261 3°4.435 -999 -999 -999  
2002-08-28 08:04:36 51°21.27 3°4.465 -999 -999 -999  
2002-08-28 08:04:41 51°21.277 3°4.49 -999 -999 -999  
2002-08-28 08:04:46 51°21.284 3°4.515 -999 -999 -999  
2002-08-28 08:04:50 51°21.29 3°4.535 -999 -999 -999  
2002-08-28 08:04:56 51°21.299 3°4.564 -999 -999 -999  
2002-08-28 08:05:00 51°21.305 3°4.584 -999 -999 -999  
2002-08-28 08:05:06 51°21.314 3°4.613 -999 -999 -999  
2002-08-28 08:05:11 51°21.321 3°4.638 -999 -999 -999  
2002-08-28 08:05:16 51°21.33 3°4.662 -999 -999 -999  
2002-08-28 08:05:21 51°21.337 3°4.686 -999 -999 -999  
2002-08-28 08:05:26 51°21.344 3°4.711 -999 -999 -999  
2002-08-28 08:05:30 51°21.35 3°4.73 -999 -999 -999  
2002-08-28 08:05:36 51°21.358 3°4.76 -999 -999 -999  
2002-08-28 08:05:41 51°21.366 3°4.785 -999 -999 -999  
2002-08-28 08:05:46 51°21.372 3°4.81 -999 -999 -999  
2002-08-28 08:05:50 51°21.378 3°4.83 -999 -999 -999  
2002-08-28 08:05:56 51°21.386 3°4.86 -999 -999 -999  
2002-08-28 08:06:01 51°21.394 3°4.884 -999 -999 -999  
2002-08-28 08:06:06 51°21.401 3°4.909 -999 -999 -999  
2002-08-28 08:06:10 51°21.407 3°4.928 -999 -999 -999  
2002-08-28 08:06:15 51°21.415 3°4.952 -999 -999 -999  
2002-08-28 08:06:21 51°21.424 3°4.98 -999 -999 -999  
2002-08-28 08:06:26 51°21.431 3°5.005 -999 -999 -999  
2002-08-28 08:06:30 51°21.438 3°5.024 -999 -999 -999  
2002-08-28 08:06:36 51°21.446 3°5.054 -999 -999 -999  
2002-08-28 08:06:41 51°21.454 3°5.078 -999 -999 -999  
2002-08-28 08:06:46 51°21.46 3°5.103 -999 -999 -999  
2002-08-28 08:06:50 51°21.467 3°5.122 -999 -999 -999  
2002-08-28 08:06:55 51°21.473 3°5.147 -999 -999 -999  
2002-08-28 08:07:01 51°21.483 3°5.176 -999 -999 -999  
2002-08-28 08:07:06 51°21.489 3°5.201 -999 -999 -999  
2002-08-28 08:07:10 51°21.496 3°5.22 -999 -999 -999  
2002-08-28 08:07:16 51°21.505 3°5.249 -999 -999 -999  
2002-08-28 08:07:21 51°21.512 3°5.273 -999 -999 -999  
2002-08-28 08:07:26 51°21.52 3°5.297 -999 -999 -999  
2002-08-28 08:07:30 51°21.526 3°5.317 -999 -999 -999  
2002-08-28 08:07:36 51°21.535 3°5.346 -999 -999 -999  
2002-08-28 08:07:41 51°21.542 3°5.37 -999 -999 -999  
2002-08-28 08:07:46 51°21.549 3°5.394 -999 -999 -999  
2002-08-28 08:07:50 51°21.555 3°5.414 -999 -999 -999  
2002-08-28 08:07:56 51°21.564 3°5.444 -999 -999 -999  
2002-08-28 08:08:01 51°21.571 3°5.468 -999 -999 -999  
2002-08-28 08:08:06 51°21.577 3°5.493 -999 -999 -999  
2002-08-28 08:08:11 51°21.583 3°5.518 -999 -999 -999  
2002-08-28 08:08:16 51°21.59 3°5.543 -999 -999 -999  
2002-08-28 08:08:21 51°21.597 3°5.568 -999 -999 -999  
2002-08-28 08:08:25 51°21.602 3°5.588 -999 -999 -999  
2002-08-28 08:08:30 51°21.609 3°5.613 -999 -999 -999  
2002-08-28 08:08:36 51°21.616 3°5.643 -999 -999 -999  
2002-08-28 08:08:41 51°21.623 3°5.667 -999 -999 -999  
2002-08-28 08:08:45 51°21.628 3°5.688 -999 -999 -999  
2002-08-28 08:08:51 51°21.636 3°5.718 -999 -999 -999  
2002-08-28 08:08:56 51°21.641 3°5.743 -999 -999 -999  
2002-08-28 08:09:01 51°21.648 3°5.768 -999 -999 -999  
2002-08-28 08:09:06 51°21.654 3°5.793 -999 -999 -999  
2002-08-28 08:09:10 51°21.66 3°5.813 -999 -999 -999  
2002-08-28 08:09:16 51°21.667 3°5.843 -999 -999 -999  
2002-08-28 08:09:21 51°21.674 3°5.868 -999 -999 -999  
2002-08-28 08:09:26 51°21.68 3°5.893 -999 -999 -999  
2002-08-28 08:09:30 51°21.685 3°5.913 -999 -999 -999  
2002-08-28 08:09:36 51°21.693 3°5.943 -999 -999 -999  
2002-08-28 08:09:41 51°21.699 3°5.968 -999 -999 -999  
2002-08-28 08:09:46 51°21.705 3°5.994 -999 -999 -999  
2002-08-28 08:09:50 51°21.71 3°6.014 -999 -999 -999  
2002-08-28 08:09:56 51°21.717 3°6.044 -999 -999 -999  
2002-08-28 08:10:01 51°21.723 3°6.069 -999 -999 -999  
2002-08-28 08:10:06 51°21.73 3°6.094 -999 -999 -999  
2002-08-28 08:10:10 51°21.735 3°6.114 -999 -999 -999  
2002-08-28 08:10:16 51°21.742 3°6.145 -999 -999 -999  
2002-08-28 08:10:21 51°21.747 3°6.171 -999 -999 -999  
2002-08-28 08:10:26 51°21.753 3°6.197 -999 -999 -999  
2002-08-28 08:10:31 51°21.756 3°6.223 -999 -999 -999  
2002-08-28 08:10:36 51°21.761 3°6.249 -999 -999 -999  
2002-08-28 08:10:41 51°21.765 3°6.275 -999 -999 -999  
2002-08-28 08:10:46 51°21.769 3°6.301 -999 -999 -999  
2002-08-28 08:10:50 51°21.771 3°6.322 -999 -999 -999  
2002-08-28 08:10:56 51°21.778 3°6.353 -999 -999 -999  
2002-08-28 08:11:01 51°21.78 3°6.379 -999 -999 -999  
2002-08-28 08:11:06 51°21.785 3°6.406 -999 -999 -999  
2002-08-28 08:11:10 51°21.788 3°6.427 -999 -999 -999  
2002-08-28 08:11:16 51°21.792 3°6.458 -999 -999 -999  
2002-08-28 08:11:21 51°21.796 3°6.484 -999 -999 -999  
2002-08-28 08:11:25 51°21.799 3°6.505 -999 -999 -999  
2002-08-28 08:11:30 51°21.804 3°6.531 -999 -999 -999  
2002-08-28 08:11:36 51°21.81 3°6.562 -999 -999 -999  
2002-08-28 08:11:41 51°21.815 3°6.588 -999 -999 -999  
2002-08-28 08:11:45 51°21.819 3°6.609 -999 -999 -999  
2002-08-28 08:11:50 51°21.823 3°6.635 -999 -999 -999  
2002-08-28 08:11:55 51°21.828 3°6.66 -999 -999 -999  
2002-08-28 08:12:01 51°21.834 3°6.691 -999 -999 -999  
2002-08-28 08:12:05 51°21.837 3°6.712 -999 -999 -999  
2002-08-28 08:12:11 51°21.843 3°6.743 -999 -999 -999  
2002-08-28 08:12:16 51°21.848 3°6.769 -999 -999 -999  
2002-08-28 08:12:21 51°21.852 3°6.795 -999 -999 -999  
2002-08-28 08:12:26 51°21.856 3°6.82 -999 -999 -999  
2002-08-28 08:12:31 51°21.861 3°6.846 -999 -999 -999  
2002-08-28 08:12:35 51°21.865 3°6.867 -999 -999 -999  
2002-08-28 08:12:41 51°21.87 3°6.898 -999 -999 -999  
2002-08-28 08:12:46 51°21.875 3°6.924 -999 -999 -999  
2002-08-28 08:12:51 51°21.879 3°6.95 -999 -999 -999  
2002-08-28 08:12:55 51°21.884 3°6.97 -999 -999 -999  
2002-08-28 08:13:01 51°21.888 3°7.002 -999 -999 -999  
2002-08-28 08:13:06 51°21.895 3°7.027 -999 -999 -999  
2002-08-28 08:13:11 51°21.897 3°7.054 -999 -999 -999  
2002-08-28 08:13:16 51°21.903 3°7.079 -999 -999 -999  
2002-08-28 08:13:21 51°21.906 3°7.106 -999 -999 -999  
2002-08-28 08:13:26 51°21.91 3°7.132 -999 -999 -999  
2002-08-28 08:13:31 51°21.914 3°7.158 -999 -999 -999  
2002-08-28 08:13:36 51°21.917 3°7.185 -999 -999 -999  
2002-08-28 08:13:41 51°21.921 3°7.211 -999 -999 -999  
2002-08-28 08:13:46 51°21.925 3°7.237 -999 -999 -999  
2002-08-28 08:13:51 51°21.929 3°7.264 -999 -999 -999  
2002-08-28 08:13:56 51°21.932 3°7.291 -999 -999 -999  
2002-08-28 08:14:01 51°21.937 3°7.317 -999 -999 -999  
2002-08-28 08:14:06 51°21.94 3°7.344 -999 -999 -999  
2002-08-28 08:14:11 51°21.945 3°7.37 -999 -999 -999  
2002-08-28 08:14:15 51°21.947 3°7.392 -999 -999 -999  
2002-08-28 08:14:18 51°21.95 3°7.408 -999 -999 -999  
2002-08-28 08:14:26 51°21.955 3°7.451 -999 -999 -999  
2002-08-28 08:14:30 51°21.958 3°7.472 -999 -999 -999  
2002-08-28 08:14:35 51°21.962 3°7.498 -999 -999 -999  
2002-08-28 08:14:41 51°21.967 3°7.53 -999 -999 -999  
2002-08-28 08:14:46 51°21.969 3°7.556 -999 -999 -999  
2002-08-28 08:14:51 51°21.972 3°7.583 -999 -999 -999  
2002-08-28 08:14:55 51°21.976 3°7.604 -999 -999 -999  
2002-08-28 08:15:01 51°21.979 3°7.636 -999 -999 -999  
2002-08-28 08:15:06 51°21.984 3°7.662 -999 -999 -999  
2002-08-28 08:15:11 51°21.986 3°7.688 -999 -999 -999  
2002-08-28 08:15:15 51°21.99 3°7.709 -999 -999 -999  
2002-08-28 08:15:21 51°21.993 3°7.741 -999 -999 -999  
2002-08-28 08:15:26 51°21.997 3°7.767 -999 -999 -999  
2002-08-28 08:15:31 51°22.001 3°7.794 -999 -999 -999  
2002-08-28 08:15:36 51°22.005 3°7.82 -999 -999 -999  
2002-08-28 08:15:41 51°22.007 3°7.847 -999 -999 -999  
2002-08-28 08:15:46 51°22.012 3°7.873 -999 -999 -999  
2002-08-28 08:15:51 51°22.015 3°7.9 -999 -999 -999  
2002-08-28 08:15:56 51°22.019 3°7.926 -999 -999 -999  
2002-08-28 08:16:01 51°22.021 3°7.953 -999 -999 -999  
2002-08-28 08:16:06 51°22.026 3°7.979 -999 -999 -999  
2002-08-28 08:16:11 51°22.028 3°8.006 -999 -999 -999  
2002-08-28 08:16:16 51°22.032 3°8.032 -999 -999 -999  
2002-08-28 08:16:21 51°22.035 3°8.058 -999 -999 -999  
2002-08-28 08:16:26 51°22.039 3°8.084 -999 -999 -999  
2002-08-28 08:16:31 51°22.041 3°8.11 -999 -999 -999  
2002-08-28 08:16:35 51°22.046 3°8.131 -999 -999 -999  
2002-08-28 08:16:41 51°22.049 3°8.163 -999 -999 -999  
2002-08-28 08:16:46 51°22.053 3°8.188 -999 -999 -999  
2002-08-28 08:16:51 51°22.056 3°8.214 -999 -999 -999  
2002-08-28 08:16:56 51°22.06 3°8.239 -999 -999 -999  
2002-08-28 08:17:02 51°22.064 3°8.271 -999 -999 -999  
2002-08-28 08:17:06 51°22.068 3°8.291 -999 -999 -999  
2002-08-28 08:17:11 51°22.071 3°8.317 -999 -999 -999  
2002-08-28 08:17:16 51°22.075 3°8.342 -999 -999 -999  
2002-08-28 08:17:22 51°22.079 3°8.373 -999 -999 -999  
2002-08-28 08:17:26 51°22.082 3°8.393 -999 -999 -999  
2002-08-28 08:17:31 51°22.085 3°8.419 -999 -999 -999  
2002-08-28 08:17:36 51°22.088 3°8.445 -999 -999 -999  
2002-08-28 08:17:41 51°22.091 3°8.47 -999 -999 -999  
2002-08-28 08:17:46 51°22.094 3°8.496 -999 -999 -999  
2002-08-28 08:17:51 51°22.097 3°8.521 -999 -999 -999  
2002-08-28 08:17:56 51°22.099 3°8.545 -999 -999 -999  
2002-08-28 08:18:01 51°22.102 3°8.568 -999 -999 -999  
2002-08-28 08:18:06 51°22.104 3°8.59 -999 -999 -999  
2002-08-28 08:18:11 51°22.106 3°8.611 -999 -999 -999  
2002-08-28 08:18:15 51°22.107 3°8.628 -999 -999 -999  
2002-08-28 08:18:21 51°22.11 3°8.652 -999 -999 -999  
2002-08-28 08:18:26 51°22.111 3°8.672 -999 -999 -999  
2002-08-28 08:18:31 51°22.112 3°8.692 -999 -999 -999  
2002-08-28 08:18:36 51°22.11 3°8.711 -999 -999 -999  
2002-08-28 08:18:41 51°22.109 3°8.73 -999 -999 -999  
2002-08-28 08:18:46 51°22.107 3°8.749 -999 -999 -999  
2002-08-28 08:18:51 51°22.106 3°8.768 -999 -999 -999  
2002-08-28 08:18:56 51°22.104 3°8.786 -999 -999 -999  
2002-08-28 08:19:01 51°22.103 3°8.805 -999 -999 -999  
2002-08-28 08:19:06 51°22.102 3°8.823 -999 -999 -999  
2002-08-28 08:19:11 51°22.101 3°8.841 -999 -999 -999  
2002-08-28 08:19:16 51°22.1 3°8.859 -999 -999 -999  
2002-08-28 08:19:20 51°22.099 3°8.874 -999 -999 -999  
2002-08-28 08:19:26 51°22.098 3°8.895 -999 -999 -999  
2002-08-28 08:19:31 51°22.098 3°8.913 -999 -999 -999  
2002-08-28 08:19:35 51°22.097 3°8.928 -999 -999 -999  
2002-08-28 08:19:41 51°22.096 3°8.949 -999 -999 -999  
2002-08-28 08:19:46 51°22.096 3°8.967 -999 -999 -999  
2002-08-28 08:19:51 51°22.096 3°8.984 -999 -999 -999  
2002-08-28 08:19:56 51°22.096 3°9.002 -999 -999 -999  
2002-08-28 08:20:01 51°22.095 3°9.019 -999 -999 -999  
2002-08-28 08:20:06 51°22.096 3°9.037 -999 -999 -999  
2002-08-28 08:20:11 51°22.096 3°9.055 -999 -999 -999  
2002-08-28 08:20:15 51°22.096 3°9.069 -999 -999 -999  
2002-08-28 08:20:21 51°22.096 3°9.09 -999 -999 -999  
2002-08-28 08:20:26 51°22.097 3°9.108 -999 -999 -999  
2002-08-28 08:20:31 51°22.097 3°9.126 -999 -999 -999  
2002-08-28 08:20:35 51°22.098 3°9.139 -999 -999 -999  
2002-08-28 08:20:38 51°22.098 3°9.15 -999 -999 -999  
2002-08-28 08:20:46 51°22.098 3°9.178 -999 -999 -999  
2002-08-28 08:20:51 51°22.097 3°9.196 -999 -999 -999  
2002-08-28 08:20:56 51°22.096 3°9.214 -999 -999 -999  
2002-08-28 08:21:01 51°22.095 3°9.232 -999 -999 -999  
2002-08-28 08:21:06 51°22.094 3°9.251 -999 -999 -999  
2002-08-28 08:21:11 51°22.094 3°9.271 -999 -999 -999  
2002-08-28 08:21:15 51°22.094 3°9.288 -999 -999 -999  
2002-08-28 08:21:21 51°22.095 3°9.315 -999 -999 -999  
2002-08-28 08:21:26 51°22.095 3°9.339 -999 -999 -999  
2002-08-28 08:21:31 51°22.096 3°9.362 -999 -999 -999  
2002-08-28 08:21:34 51°22.096 3°9.377 -999 -999 -999  
2002-08-28 08:21:41 51°22.099 3°9.411 -999 -999 -999  
2002-08-28 08:21:47 51°22.101 3°9.441 -999 -999 -999  
2002-08-28 08:21:51 51°22.103 3°9.461 -999 -999 -999  
2002-08-28 08:21:55 51°22.104 3°9.481 -999 -999 -999  
2002-08-28 08:21:59 51°22.106 3°9.501 -999 -999 -999  
2002-08-28 08:22:06 51°22.11 3°9.537 -999 -999 -999  
2002-08-28 08:22:11 51°22.113 3°9.562 -999 -999 -999  
2002-08-28 08:22:15 51°22.116 3°9.583 -999 -999 -999  
2002-08-28 08:22:21 51°22.121 3°9.612 -999 -999 -999  
2002-08-28 08:22:26 51°22.125 3°9.637 -999 -999 -999  
2002-08-28 08:22:31 51°22.131 3°9.661 -999 -999 -999  
2002-08-28 08:22:36 51°22.136 3°9.686 -999 -999 -999  
2002-08-28 08:22:41 51°22.142 3°9.71 -999 -999 -999  
2002-08-28 08:22:46 51°22.147 3°9.735 -999 -999 -999  
2002-08-28 08:22:51 51°22.153 3°9.759 -999 -999 -999  
2002-08-28 08:22:56 51°22.157 3°9.784 -999 -999 -999  
2002-08-28 08:23:01 51°22.164 3°9.808 -999 -999 -999  
2002-08-28 08:23:06 51°22.168 3°9.833 -999 -999 -999  
2002-08-28 08:23:11 51°22.175 3°9.856 -999 -999 -999  
2002-08-28 08:23:16 51°22.179 3°9.881 -999 -999 -999  
2002-08-28 08:23:21 51°22.185 3°9.905 -999 -999 -999  
2002-08-28 08:23:26 51°22.19 3°9.93 -999 -999 -999  
2002-08-28 08:23:31 51°22.196 3°9.954 -999 -999 -999  
2002-08-28 08:23:35 51°22.199 3°9.973 -999 -999 -999  
2002-08-28 08:23:41 51°22.205 3°10.003 -999 -999 -999  
2002-08-28 08:23:46 51°22.211 3°10.028 -999 -999 -999  
2002-08-28 08:23:51 51°22.216 3°10.052 -999 -999 -999  
2002-08-28 08:23:55 51°22.22 3°10.072 -999 -999 -999  
2002-08-28 08:23:58 51°22.223 3°10.086 -999 -999 -999  
2002-08-28 08:24:06 51°22.231 3°10.126 -999 -999 -999  
2002-08-28 08:24:11 51°22.236 3°10.151 -999 -999 -999  
2002-08-28 08:24:15 51°22.239 3°10.171 -999 -999 -999  
2002-08-28 08:24:21 51°22.245 3°10.201 -999 -999 -999  
2002-08-28 08:24:26 51°22.25 3°10.226 -999 -999 -999  
2002-08-28 08:24:31 51°22.255 3°10.251 -999 -999 -999  
2002-08-28 08:24:36 51°22.259 3°10.276 -999 -999 -999  
2002-08-28 08:24:41 51°22.264 3°10.301 -999 -999 -999  
2002-08-28 08:24:46 51°22.269 3°10.326 -999 -999 -999  
2002-08-28 08:24:51 51°22.273 3°10.351 -999 -999 -999  
2002-08-28 08:24:56 51°22.278 3°10.377 -999 -999 -999  
2002-08-28 08:25:01 51°22.283 3°10.402 -999 -999 -999  
2002-08-28 08:25:06 51°22.288 3°10.426 -999 -999 -999  
2002-08-28 08:25:11 51°22.292 3°10.452 -999 -999 -999  
2002-08-28 08:25:15 51°22.296 3°10.473 -999 -999 -999  
2002-08-28 08:25:21 51°22.302 3°10.503 -999 -999 -999  
2002-08-28 08:25:26 51°22.307 3°10.528 -999 -999 -999  
2002-08-28 08:25:31 51°22.313 3°10.553 -999 -999 -999  
2002-08-28 08:25:35 51°22.316 3°10.573 -999 -999 -999  
2002-08-28 08:25:41 51°22.323 3°10.603 -999 -999 -999  
2002-08-28 08:25:46 51°22.327 3°10.628 -999 -999 -999  
2002-08-28 08:25:51 51°22.333 3°10.653 -999 -999 -999  
2002-08-28 08:25:56 51°22.337 3°10.678 -999 -999 -999  
2002-08-28 08:25:59 51°22.341 3°10.693 -999 -999 -999  
2002-08-28 08:26:06 51°22.347 3°10.728 -999 -999 -999  
2002-08-28 08:26:11 51°22.353 3°10.752 -999 -999 -999  
2002-08-28 08:26:17 51°22.358 3°10.783 -999 -999 -999  
2002-08-28 08:26:22 51°22.363 3°10.806 -999 -999 -999  
2002-08-28 08:26:26 51°22.366 3°10.827 -999 -999 -999  
2002-08-28 08:26:31 51°22.372 3°10.851 -999 -999 -999  
2002-08-28 08:26:35 51°22.375 3°10.871 -999 -999 -999  
2002-08-28 08:26:41 51°22.381 3°10.9 -999 -999 -999  
2002-08-28 08:26:46 51°22.384 3°10.925 -999 -999 -999  
2002-08-28 08:26:51 51°22.391 3°10.949 -999 -999 -999  
2002-08-28 08:26:55 51°22.392 3°10.969 -999 -999 -999  
2002-08-28 08:27:01 51°22.398 3°10.999 -999 -999 -999  
2002-08-28 08:27:06 51°22.402 3°11.023 -999 -999 -999  
2002-08-28 08:27:11 51°22.406 3°11.048 -999 -999 -999  
2002-08-28 08:27:15 51°22.409 3°11.068 -999 -999 -999  
2002-08-28 08:27:21 51°22.412 3°11.099 -999 -999 -999  
2002-08-28 08:27:26 51°22.417 3°11.123 -999 -999 -999  
2002-08-28 08:27:31 51°22.419 3°11.149 -999 -999 -999  
2002-08-28 08:27:37 51°22.425 3°11.179 -999 -999 -999  
2002-08-28 08:27:41 51°22.427 3°11.199 -999 -999 -999  
2002-08-28 08:27:46 51°22.431 3°11.224 -999 -999 -999  
2002-08-28 08:27:51 51°22.436 3°11.249 -999 -999 -999  
2002-08-28 08:27:56 51°22.439 3°11.275 -999 -999 -999  
2002-08-28 08:28:01 51°22.443 3°11.3 -999 -999 -999  
2002-08-28 08:28:06 51°22.446 3°11.325 -999 -999 -999  
2002-08-28 08:28:10 51°22.449 3°11.346 -999 -999 -999  
2002-08-28 08:28:15 51°22.454 3°11.371 -999 -999 -999  
2002-08-28 08:28:21 51°22.458 3°11.402 -999 -999 -999  
2002-08-28 08:28:26 51°22.462 3°11.427 -999 -999 -999  
2002-08-28 08:28:31 51°22.466 3°11.452 -999 -999 -999  
2002-08-28 08:28:36 51°22.47 3°11.477 -999 -999 -999  
2002-08-28 08:28:41 51°22.475 3°11.502 -999 -999 -999  
2002-08-28 08:28:46 51°22.478 3°11.527 -999 -999 -999  
2002-08-28 08:28:51 51°22.482 3°11.551 -999 -999 -999  
2002-08-28 08:28:56 51°22.485 3°11.577 -999 -999 -999  
2002-08-28 08:29:02 51°22.49 3°11.607 -999 -999 -999  
2002-08-28 08:29:06 51°22.493 3°11.628 -999 -999 -999  
2002-08-28 08:29:11 51°22.496 3°11.653 -999 -999 -999  
2002-08-28 08:29:17 51°22.5 3°11.683 -999 -999 -999  
2002-08-28 08:29:21 51°22.503 3°11.703 -999 -999 -999  
2002-08-28 08:29:26 51°22.505 3°11.729 -999 -999 -999  
2002-08-28 08:29:30 51°22.509 3°11.749 -999 -999 -999  
2002-08-28 08:29:34 51°22.511 3°11.77 -999 -999 -999  
2002-08-28 08:29:42 51°22.516 3°11.81 -999 -999 -999  
2002-08-28 08:29:46 51°22.518 3°11.83 -999 -999 -999  
2002-08-28 08:29:51 51°22.521 3°11.856 -999 -999 -999  
2002-08-28 08:29:56 51°22.525 3°11.881 -999 -999 -999  
2002-08-28 08:30:01 51°22.527 3°11.907 -999 -999 -999  
2002-08-28 08:30:06 51°22.53 3°11.932 -999 -999 -999  
2002-08-28 08:30:11 51°22.533 3°11.958 -999 -999 -999  
2002-08-28 08:30:16 51°22.537 3°11.983 -999 -999 -999  
2002-08-28 08:30:21 51°22.539 3°12.009 -999 -999 -999  
2002-08-28 08:30:27 51°22.544 3°12.039 -999 -999 -999  
2002-08-28 08:30:31 51°22.546 3°12.06 -999 -999 -999